Terminal Aerodrome Forecast
Issued by NWS

Home | Current Version | Previous Version | Text Only | Print | Product List | Glossary On
Versions: 1 2 3 4 5 6 7 8 9 10 11 12 13 14 15 16
000
FTUS45 KABQ 022341
TAFSAF
TAF
KSAF 022341Z 0300/0324 12011G20KT P6SM SCT050 BKN080
     FM030800 04011KT P6SM SCT030 BKN050
     FM031500 02009KT P6SM SCT030 SCT060
     FM032000 30009KT P6SM FEW060 SCT100=

USA.gov is the U.S. government's official web portal to all federal, state and local government web resources and services.